Time;durP1;ratioP1;P1;durP2;ratioP2;P2;SDS_P1;SDS_P2;PMS_P1;PMS_P2;Temp;Humidity;BMP_temperature;BMP_pressure;BME280_temperature;BME280_humidity;BME280_pressure;Samples;Min_cycle;Max_cycle;Signal;HPM_P1;HPM_P2
2023/12/04 00:01:45;;;;;;;29.58;18.90;;;;;;;;;;5048704;28;20416;-67
2023/12/04 00:04:10;;;;;;;25.65;17.65;;;;;;;;;;5049106;28;20477;-67
2023/12/04 00:06:35;;;;;;;25.17;16.97;;;;;;;;;;5049319;28;20413;-67
2023/12/04 00:09:01;;;;;;;26.73;18.00;;;;;;;;;;5048209;28;20409;-67
2023/12/04 00:11:26;;;;;;;23.30;15.67;;;;;;;;;;5049684;28;20466;-67
2023/12/04 00:13:52;;;;;;;26.73;16.70;;;;;;;;;;5049396;28;20419;-67
2023/12/04 00:16:27;;;;;;;24.75;16.27;;;;;;;;;;5048192;28;20477;-67
2023/12/04 00:18:52;;;;;;;24.50;16.58;;;;;;;;;;5049495;28;20753;-67
2023/12/04 00:21:17;;;;;;;23.57;16.67;;;;;;;;;;5048965;28;20468;-67
2023/12/04 00:23:42;;;;;;;22.13;15.43;;;;;;;;;;5048389;28;20531;-68
2023/12/04 00:26:08;;;;;;;25.40;17.13;;;;;;;;;;5048727;28;20405;-67
2023/12/04 00:28:35;;;;;;;22.43;15.90;;;;;;;;;;5048436;28;20392;-68
2023/12/04 00:31:01;;;;;;;23.95;16.48;;;;;;;;;;5048941;28;20773;-68
2023/12/04 00:33:26;;;;;;;24.70;16.70;;;;;;;;;;5049321;28;20409;-68
2023/12/04 00:35:51;;;;;;;22.90;15.73;;;;;;;;;;5048613;28;20402;-68
2023/12/04 00:38:16;;;;;;;24.00;16.67;;;;;;;;;;5048783;28;20410;-68
2023/12/04 00:40:42;;;;;;;21.53;15.07;;;;;;;;;;5049373;28;20440;-68
2023/12/04 00:43:07;;;;;;;23.75;16.27;;;;;;;;;;5048208;28;20760;-68
2023/12/04 00:45:32;;;;;;;21.80;15.07;;;;;;;;;;5048858;28;20734;-68
2023/12/04 00:47:58;;;;;;;24.30;16.60;;;;;;;;;;5051597;28;20401;-68
2023/12/04 00:50:23;;;;;;;21.67;15.40;;;;;;;;;;5051488;28;20471;-68
2023/12/04 00:52:48;;;;;;;22.92;15.30;;;;;;;;;;5052452;28;20905;-68
2023/12/04 00:55:13;;;;;;;24.13;15.80;;;;;;;;;;5071204;28;20428;-68
2023/12/04 00:57:39;;;;;;;23.13;15.63;;;;;;;;;;5056709;28;20885;-68
2023/12/04 01:00:04;;;;;;;24.30;16.40;;;;;;;;;;5051805;28;20402;-68
2023/12/04 01:02:30;;;;;;;21.83;14.80;;;;;;;;;;5052555;28;20791;-68
2023/12/04 01:04:55;;;;;;;23.07;15.80;;;;;;;;;;5051778;28;20416;-68
2023/12/04 01:07:20;;;;;;;21.73;15.15;;;;;;;;;;5034085;28;20441;-68
2023/12/04 01:09:46;;;;;;;22.07;15.07;;;;;;;;;;5052345;28;20961;-68
2023/12/04 01:12:11;;;;;;;21.80;15.03;;;;;;;;;;5051197;28;20413;-68
2023/12/04 01:14:38;;;;;;;20.40;14.40;;;;;;;;;;5052153;28;20397;-68
2023/12/04 01:17:03;;;;;;;22.47;15.33;;;;;;;;;;5051810;28;20511;-69
2023/12/04 01:19:29;;;;;;;22.30;14.93;;;;;;;;;;5033891;28;20740;-69
2023/12/04 01:21:54;;;;;;;21.60;14.83;;;;;;;;;;5052227;28;21020;-69
2023/12/04 01:24:19;;;;;;;21.07;14.63;;;;;;;;;;5051469;28;20405;-69
2023/12/04 01:26:45;;;;;;;21.43;15.10;;;;;;;;;;5051439;28;20470;-69
2023/12/04 01:29:10;;;;;;;21.60;15.33;;;;;;;;;;5051418;28;20829;-69
2023/12/04 01:31:35;;;;;;;21.03;14.60;;;;;;;;;;5052007;28;20389;-69
2023/12/04 01:34:01;;;;;;;22.20;14.20;;;;;;;;;;5050811;28;20417;-69
2023/12/04 01:36:26;;;;;;;20.13;14.07;;;;;;;;;;5052066;28;20490;-69
2023/12/04 01:38:51;;;;;;;20.00;14.03;;;;;;;;;;5051099;28;20397;-69
2023/12/04 01:41:17;;;;;;;19.23;13.55;;;;;;;;;;5051337;28;20404;-69
2023/12/04 01:43:42;;;;;;;19.03;13.63;;;;;;;;;;5051684;28;20451;-69
2023/12/04 01:46:07;;;;;;;19.80;13.73;;;;;;;;;;5050388;28;20408;-69
2023/12/04 01:48:33;;;;;;;22.13;15.25;;;;;;;;;;5051913;28;20390;-68
2023/12/04 01:50:58;;;;;;;22.57;14.93;;;;;;;;;;5051608;28;20401;-69
2023/12/04 01:53:23;;;;;;;19.73;13.63;;;;;;;;;;5032842;28;20455;-69
2023/12/04 01:55:49;;;;;;;20.80;14.70;;;;;;;;;;5051701;28;20455;-68
2023/12/04 01:58:14;;;;;;;22.35;14.90;;;;;;;;;;5050188;28;20932;-68
2023/12/04 02:00:39;;;;;;;20.67;14.67;;;;;;;;;;5050418;28;20881;-68
2023/12/04 02:03:04;;;;;;;22.40;15.10;;;;;;;;;;5033020;28;20472;-68
2023/12/04 02:05:30;;;;;;;20.10;14.37;;;;;;;;;;5051017;28;20435;-68
2023/12/04 02:07:56;;;;;;;21.88;14.45;;;;;;;;;;5032963;28;20415;-68
2023/12/04 02:10:22;;;;;;;20.33;14.00;;;;;;;;;;5050594;28;20404;-68
2023/12/04 02:12:47;;;;;;;18.65;13.30;;;;;;;;;;5051252;28;20398;-68
2023/12/04 02:15:13;;;;;;;21.33;14.33;;;;;;;;;;5050081;28;20458;-68
2023/12/04 02:17:39;;;;;;;19.85;13.73;;;;;;;;;;5051124;28;20939;-68
2023/12/04 02:20:05;;;;;;;19.80;13.80;;;;;;;;;;5050734;28;20397;-68
2023/12/04 02:22:30;;;;;;;18.97;13.70;;;;;;;;;;5050261;28;20749;-68
2023/12/04 02:24:58;;;;;;;20.47;14.00;;;;;;;;;;5050776;28;20421;-68
2023/12/04 02:27:25;;;;;;;19.95;13.43;;;;;;;;;;5050574;28;20493;-68
2023/12/04 02:29:52;;;;;;;17.70;12.50;;;;;;;;;;5050271;28;20480;-68
2023/12/04 02:32:18;;;;;;;19.08;13.52;;;;;;;;;;5050335;28;20393;-68
2023/12/04 02:34:44;;;;;;;18.80;13.40;;;;;;;;;;5050993;28;20402;-69
2023/12/04 02:37:09;;;;;;;18.53;12.67;;;;;;;;;;5049730;28;20876;-69
2023/12/04 02:39:34;;;;;;;19.27;13.60;;;;;;;;;;5051005;28;20744;-68
2023/12/04 02:42:00;;;;;;;19.57;13.27;;;;;;;;;;5050637;28;20421;-68
2023/12/04 02:44:25;;;;;;;19.07;13.00;;;;;;;;;;5031452;28;20912;-68
2023/12/04 02:46:50;;;;;;;17.53;12.03;;;;;;;;;;5050626;28;20416;-69
2023/12/04 02:49:15;;;;;;;18.03;12.30;;;;;;;;;;5049508;28;20474;-69
2023/12/04 02:51:41;;;;;;;18.27;12.73;;;;;;;;;;5050651;28;20412;-69
2023/12/04 02:54:07;;;;;;;18.20;13.00;;;;;;;;;;5050024;28;20489;-69
2023/12/04 02:56:32;;;;;;;19.53;13.10;;;;;;;;;;5049600;28;20405;-69
2023/12/04 02:58:57;;;;;;;19.30;13.57;;;;;;;;;;5050562;28;20498;-69
2023/12/04 03:01:23;;;;;;;16.15;11.75;;;;;;;;;;5049718;28;20400;-68
2023/12/04 03:03:48;;;;;;;17.37;12.57;;;;;;;;;;5049638;28;20397;-68
2023/12/04 03:06:15;;;;;;;17.80;12.37;;;;;;;;;;5049733;28;20421;-68
2023/12/04 03:08:41;;;;;;;16.52;11.93;;;;;;;;;;5050131;28;20397;-68
2023/12/04 03:11:06;;;;;;;16.60;11.37;;;;;;;;;;5048654;28;20919;-68
2023/12/04 03:13:32;;;;;;;16.75;12.20;;;;;;;;;;5050165;28;20447;-68
2023/12/04 03:15:57;;;;;;;16.17;11.70;;;;;;;;;;5050294;28;20406;-68
2023/12/04 03:18:24;;;;;;;17.33;11.77;;;;;;;;;;5048884;28;20404;-68
2023/12/04 03:20:50;;;;;;;17.60;12.52;;;;;;;;;;5050154;28;20440;-68
2023/12/04 03:23:15;;;;;;;16.40;11.52;;;;;;;;;;5049370;28;20429;-68
2023/12/04 03:25:40;;;;;;;16.47;11.83;;;;;;;;;;5049306;28;20463;-68
2023/12/04 03:28:05;;;;;;;16.17;11.03;;;;;;;;;;5049304;28;20397;-68
2023/12/04 03:30:31;;;;;;;15.37;11.33;;;;;;;;;;5050189;28;20834;-68
2023/12/04 03:32:56;;;;;;;16.67;12.32;;;;;;;;;;5049154;28;20401;-68
2023/12/04 03:35:21;;;;;;;16.10;11.60;;;;;;;;;;5049465;28;20385;-68
2023/12/04 03:37:49;;;;;;;16.60;11.70;;;;;;;;;;5049734;28;20385;-68
2023/12/04 03:40:14;;;;;;;14.93;11.05;;;;;;;;;;5048570;28;20398;-68
2023/12/04 03:42:40;;;;;;;16.07;11.60;;;;;;;;;;5049618;28;20482;-68
2023/12/04 03:45:06;;;;;;;15.95;11.85;;;;;;;;;;5049153;28;20406;-68
2023/12/04 03:47:31;;;;;;;15.65;11.50;;;;;;;;;;5048987;28;20401;-68
2023/12/04 03:49:57;;;;;;;15.23;10.50;;;;;;;;;;5049729;28;20404;-68
2023/12/04 03:52:22;;;;;;;16.53;11.43;;;;;;;;;;5049219;28;20393;-68
2023/12/04 03:54:47;;;;;;;14.83;10.77;;;;;;;;;;5049173;28;20792;-68
2023/12/04 03:57:12;;;;;;;15.17;10.80;;;;;;;;;;5049067;28;20617;-68
2023/12/04 03:59:38;;;;;;;14.47;10.13;;;;;;;;;;5049003;28;20465;-66
2023/12/04 04:02:03;;;;;;;14.47;10.33;;;;;;;;;;5030369;28;20504;-68
2023/12/04 04:04:28;;;;;;;14.48;10.45;;;;;;;;;;5037991;28;20401;-68
2023/12/04 04:06:54;;;;;;;15.07;10.83;;;;;;;;;;5022060;28;20423;-68
2023/12/04 04:09:20;;;;;;;14.20;10.33;;;;;;;;;;5021182;28;20410;-68
2023/12/04 04:11:45;;;;;;;15.25;10.07;;;;;;;;;;5039762;28;20437;-69
2023/12/04 04:14:12;;;;;;;14.80;10.48;;;;;;;;;;5018602;28;21386;-68
2023/12/04 04:16:37;;;;;;;14.90;10.60;;;;;;;;;;5017613;28;20843;-68
2023/12/04 04:19:03;;;;;;;13.60;9.40;;;;;;;;;;5023423;28;20409;-68
2023/12/04 04:21:28;;;;;;;14.07;10.33;;;;;;;;;;5021042;28;20383;-68
2023/12/04 04:23:53;;;;;;;14.47;10.10;;;;;;;;;;5035446;28;20914;-68
2023/12/04 04:26:19;;;;;;;14.23;10.00;;;;;;;;;;5042986;28;20764;-68
2023/12/04 04:28:44;;;;;;;13.40;10.07;;;;;;;;;;5042409;28;20454;-68
2023/12/04 04:31:09;;;;;;;13.33;9.33;;;;;;;;;;5043190;28;20428;-68
2023/12/04 04:33:35;;;;;;;13.07;9.67;;;;;;;;;;5043301;28;20964;-68
2023/12/04 04:36:00;;;;;;;13.77;10.07;;;;;;;;;;5032004;28;20841;-68
2023/12/04 04:38:25;;;;;;;14.10;10.07;;;;;;;;;;5021850;28;20386;-68
2023/12/04 04:40:52;;;;;;;14.20;9.40;;;;;;;;;;5035238;28;20409;-68
2023/12/04 04:43:17;;;;;;;13.00;9.68;;;;;;;;;;5033189;28;20606;-67
2023/12/04 04:45:43;;;;;;;14.23;9.57;;;;;;;;;;5018715;28;20415;-67
2023/12/04 04:48:08;;;;;;;12.20;8.83;;;;;;;;;;5042676;28;20405;-68
2023/12/04 04:50:33;;;;;;;12.23;8.83;;;;;;;;;;5042008;28;21341;-68
2023/12/04 04:52:59;;;;;;;12.90;9.03;;;;;;;;;;5043592;28;20880;-68
2023/12/04 04:55:24;;;;;;;13.57;9.50;;;;;;;;;;5035384;28;20399;-68
2023/12/04 04:57:49;;;;;;;14.17;9.80;;;;;;;;;;5022796;28;20434;-68
2023/12/04 05:00:16;;;;;;;12.23;8.73;;;;;;;;;;5022927;28;20766;-68
2023/12/04 05:02:41;;;;;;;12.77;8.90;;;;;;;;;;5019250;28;20391;-67
2023/12/04 05:05:06;;;;;;;12.27;8.87;;;;;;;;;;5013993;28;20795;-68
2023/12/04 05:07:31;;;;;;;11.70;8.50;;;;;;;;;;5014933;28;20527;-67
2023/12/04 05:09:57;;;;;;;12.90;9.20;;;;;;;;;;5029785;28;20405;-67
2023/12/04 05:12:22;;;;;;;12.13;8.93;;;;;;;;;;5042212;28;20527;-67
2023/12/04 05:14:47;;;;;;;12.47;8.87;;;;;;;;;;5042577;28;20405;-68
2023/12/04 05:17:13;;;;;;;11.93;8.48;;;;;;;;;;5040870;28;20502;-67
2023/12/04 05:19:38;;;;;;;11.90;8.53;;;;;;;;;;5021744;28;20398;-67
2023/12/04 05:22:03;;;;;;;11.40;8.23;;;;;;;;;;5022647;28;20717;-68
2023/12/04 05:24:29;;;;;;;12.83;8.50;;;;;;;;;;5022812;28;21143;-67
2023/12/04 05:26:54;;;;;;;11.73;8.60;;;;;;;;;;5015032;28;20407;-67
2023/12/04 05:29:19;;;;;;;11.57;8.20;;;;;;;;;;5014710;28;20438;-68
2023/12/04 05:31:44;;;;;;;11.80;8.33;;;;;;;;;;5017474;28;20952;-67
2023/12/04 05:34:10;;;;;;;13.10;8.53;;;;;;;;;;5020894;28;20902;-67
2023/12/04 05:36:35;;;;;;;12.02;8.65;;;;;;;;;;5041213;28;21119;-67
2023/12/04 05:39:00;;;;;;;11.93;8.47;;;;;;;;;;5021365;28;20490;-67
2023/12/04 05:41:26;;;;;;;10.50;7.80;;;;;;;;;;5022445;28;20410;-67
2023/12/04 05:43:53;;;;;;;11.67;8.10;;;;;;;;;;5022595;28;20402;-67
2023/12/04 05:46:18;;;;;;;10.77;7.60;;;;;;;;;;5039892;28;20787;-67
2023/12/04 05:48:43;;;;;;;10.83;7.93;;;;;;;;;;5034550;28;20432;-67
2023/12/04 05:51:09;;;;;;;11.00;7.93;;;;;;;;;;5033823;28;20702;-67
2023/12/04 05:53:35;;;;;;;11.70;8.52;;;;;;;;;;5033902;28;20480;-67
2023/12/04 05:56:01;;;;;;;11.82;8.43;;;;;;;;;;5041351;28;20398;-67
2023/12/04 05:58:26;;;;;;;11.00;7.87;;;;;;;;;;5041867;28;20409;-67
2023/12/04 06:00:51;;;;;;;10.98;7.88;;;;;;;;;;5035440;28;20403;-67
2023/12/04 06:03:16;;;;;;;11.20;8.13;;;;;;;;;;5021749;28;20404;-67
2023/12/04 06:05:42;;;;;;;11.93;7.53;;;;;;;;;;5021631;28;20537;-67
2023/12/04 06:08:07;;;;;;;12.70;8.43;;;;;;;;;;5020813;28;20418;-67
2023/12/04 06:10:34;;;;;;;10.57;7.40;;;;;;;;;;5029468;28;20405;-67
2023/12/04 06:13:00;;;;;;;10.93;8.02;;;;;;;;;;5033634;28;20401;-67
2023/12/04 06:15:25;;;;;;;10.03;7.17;;;;;;;;;;5032556;28;20635;-67
2023/12/04 06:17:51;;;;;;;10.83;7.77;;;;;;;;;;5039087;28;20401;-67
2023/12/04 06:20:16;;;;;;;11.60;8.03;;;;;;;;;;5034395;28;20403;-67
2023/12/04 06:22:41;;;;;;;10.47;6.97;;;;;;;;;;5021753;28;20383;-67
2023/12/04 06:25:07;;;;;;;10.38;7.28;;;;;;;;;;5040451;28;20409;-67
2023/12/04 06:27:33;;;;;;;10.53;7.30;;;;;;;;;;5040564;28;20559;-67
2023/12/04 06:29:59;;;;;;;9.80;7.03;;;;;;;;;;5041309;28;20385;-67
2023/12/04 06:32:24;;;;;;;9.83;6.60;;;;;;;;;;5036994;28;20404;-67
2023/12/04 06:34:49;;;;;;;9.50;6.83;;;;;;;;;;5013329;28;20399;-67
2023/12/04 06:37:15;;;;;;;10.38;7.13;;;;;;;;;;5024353;28;20470;-67
2023/12/04 06:39:40;;;;;;;9.73;6.70;;;;;;;;;;5036289;28;20946;-67
2023/12/04 06:42:07;;;;;;;9.90;7.07;;;;;;;;;;5039837;28;20893;-67
2023/12/04 06:44:32;;;;;;;8.90;6.40;;;;;;;;;;5029723;28;20411;-67
2023/12/04 06:46:58;;;;;;;8.70;6.23;;;;;;;;;;5020916;28;20395;-67
2023/12/04 06:49:24;;;;;;;8.70;6.30;;;;;;;;;;5020168;28;20406;-67
2023/12/04 06:51:49;;;;;;;9.77;6.40;;;;;;;;;;5020040;28;20498;-67
2023/12/04 06:54:14;;;;;;;10.87;6.47;;;;;;;;;;5019539;28;20402;-67
2023/12/04 06:56:40;;;;;;;8.93;6.03;;;;;;;;;;5029443;28;20777;-67
2023/12/04 06:59:05;;;;;;;8.75;6.28;;;;;;;;;;5032848;28;20636;-67
2023/12/04 07:01:30;;;;;;;10.07;6.43;;;;;;;;;;5022012;28;20414;-67
2023/12/04 07:03:56;;;;;;;10.30;6.63;;;;;;;;;;5020252;28;20406;-67
2023/12/04 07:06:22;;;;;;;9.00;6.53;;;;;;;;;;5020180;28;20497;-67
2023/12/04 07:08:47;;;;;;;9.23;6.50;;;;;;;;;;5020665;28;20397;-67
2023/12/04 07:11:14;;;;;;;9.40;6.20;;;;;;;;;;5038753;28;20397;-67
2023/12/04 07:13:41;;;;;;;9.07;6.20;;;;;;;;;;5040259;28;20396;-65
2023/12/04 07:16:06;;;;;;;8.85;6.25;;;;;;;;;;5039505;28;20502;-66
2023/12/04 07:18:32;;;;;;;10.10;6.05;;;;;;;;;;5033459;28;20756;-65
2023/12/04 07:20:57;;;;;;;8.87;5.87;;;;;;;;;;5012792;28;20672;-66
2023/12/04 07:23:22;;;;;;;8.20;5.77;;;;;;;;;;5011911;28;20505;-64
2023/12/04 07:25:47;;;;;;;8.90;6.00;;;;;;;;;;5018311;28;20403;-67
2023/12/04 07:28:13;;;;;;;10.17;6.13;;;;;;;;;;5019853;28;20798;-67
2023/12/04 07:30:38;;;;;;;8.77;6.07;;;;;;;;;;5019863;28;20406;-67
2023/12/04 07:33:04;;;;;;;8.30;5.70;;;;;;;;;;5020047;28;20415;-69
2023/12/04 07:35:29;;;;;;;8.80;6.30;;;;;;;;;;5020720;28;20394;-68
2023/12/04 07:37:54;;;;;;;9.20;6.00;;;;;;;;;;5038751;28;20976;-67
2023/12/04 07:40:22;;;;;;;9.82;6.00;;;;;;;;;;5035829;28;20734;-68
2023/12/04 07:42:48;;;;;;;8.75;5.82;;;;;;;;;;5032225;28;20740;-67
2023/12/04 07:45:14;;;;;;;9.27;6.20;;;;;;;;;;5013978;28;20407;-67
2023/12/04 07:47:39;;;;;;;8.23;6.10;;;;;;;;;;5034907;28;20408;-69
2023/12/04 07:50:05;;;;;;;8.02;5.82;;;;;;;;;;5039541;28;21025;-67
2023/12/04 07:52:30;;;;;;;8.17;5.40;;;;;;;;;;5033141;28;20453;-68
2023/12/04 07:54:56;;;;;;;8.23;5.70;;;;;;;;;;5020341;28;20438;-66
2023/12/04 07:57:22;;;;;;;8.37;5.77;;;;;;;;;;5021271;28;20376;-66
2023/12/04 07:59:47;;;;;;;9.23;6.13;;;;;;;;;;5022385;28;20426;-66
2023/12/04 08:02:13;;;;;;;8.50;5.80;;;;;;;;;;5047003;28;20899;-66
2023/12/04 08:04:38;;;;;;;9.27;6.10;;;;;;;;;;5053661;28;20749;-65
2023/12/04 08:07:03;;;;;;;8.77;5.90;;;;;;;;;;5051737;28;20413;-66
2023/12/04 08:09:29;;;;;;;9.40;6.30;;;;;;;;;;5045618;28;20759;-64
2023/12/04 08:11:54;;;;;;;9.67;6.77;;;;;;;;;;5033723;28;20818;-66
2023/12/04 08:14:19;;;;;;;9.17;6.50;;;;;;;;;;5032347;28;20386;-66
2023/12/04 08:16:44;;;;;;;9.17;6.20;;;;;;;;;;5033583;28;20411;-66
2023/12/04 08:19:10;;;;;;;9.03;6.00;;;;;;;;;;5039233;28;20443;-66
2023/12/04 08:21:35;;;;;;;8.57;6.00;;;;;;;;;;5052337;28;20726;-66
2023/12/04 08:24:01;;;;;;;9.97;6.87;;;;;;;;;;5052655;28;20417;-66
2023/12/04 08:26:26;;;;;;;9.37;6.80;;;;;;;;;;5042101;28;20395;-66
2023/12/04 08:28:52;;;;;;;9.35;6.70;;;;;;;;;;5032652;28;20418;-66
2023/12/04 08:31:17;;;;;;;9.33;6.50;;;;;;;;;;5032884;28;20399;-65
2023/12/04 08:33:42;;;;;;;10.27;6.90;;;;;;;;;;5043824;28;20478;-66
2023/12/04 08:36:08;;;;;;;9.63;6.25;;;;;;;;;;5033695;28;20408;-66
2023/12/04 08:38:33;;;;;;;9.40;6.53;;;;;;;;;;5053204;28;20954;-65
2023/12/04 08:40:58;;;;;;;9.60;6.20;;;;;;;;;;5052134;28;20424;-64
2023/12/04 08:43:24;;;;;;;9.27;6.23;;;;;;;;;;5052456;28;20418;-64
2023/12/04 08:45:49;;;;;;;9.33;6.87;;;;;;;;;;5052974;28;20397;-64
2023/12/04 08:48:14;;;;;;;8.93;6.60;;;;;;;;;;5051497;28;20433;-64
2023/12/04 08:50:40;;;;;;;9.53;6.50;;;;;;;;;;5052460;28;20478;-64
2023/12/04 08:53:05;;;;;;;9.10;6.77;;;;;;;;;;5050889;28;20405;-63
2023/12/04 08:55:30;;;;;;;9.20;6.67;;;;;;;;;;5051632;28;20405;-65
2023/12/04 08:57:56;;;;;;;9.93;6.90;;;;;;;;;;5054843;28;20400;-64
2023/12/04 09:00:21;;;;;;;10.20;7.13;;;;;;;;;;5059893;28;20444;-65
2023/12/04 09:02:48;;;;;;;9.33;6.87;;;;;;;;;;5050445;28;20397;-65
2023/12/04 09:05:13;;;;;;;10.35;6.93;;;;;;;;;;5051931;28;20448;-65
2023/12/04 09:07:38;;;;;;;11.53;7.27;;;;;;;;;;5051753;28;20417;-65
2023/12/04 09:10:04;;;;;;;9.73;6.77;;;;;;;;;;5050870;28;20427;-65
2023/12/04 09:12:29;;;;;;;9.85;6.80;;;;;;;;;;5057040;28;20744;-65
2023/12/04 09:14:54;;;;;;;8.63;6.20;;;;;;;;;;5052370;28;20401;-65
2023/12/04 09:17:20;;;;;;;10.40;7.17;;;;;;;;;;5051203;28;20396;-65
2023/12/04 09:19:45;;;;;;;10.05;6.90;;;;;;;;;;5052205;28;20405;-65
2023/12/04 09:22:11;;;;;;;11.70;8.77;;;;;;;;;;5051010;28;20409;-65
2023/12/04 09:24:36;;;;;;;10.00;7.07;;;;;;;;;;5051308;28;20409;-65
2023/12/04 09:27:01;;;;;;;9.73;7.03;;;;;;;;;;5051530;28;20492;-66
2023/12/04 09:29:27;;;;;;;11.10;7.50;;;;;;;;;;5052101;28;20389;-65
2023/12/04 09:31:52;;;;;;;19.35;12.68;;;;;;;;;;5051357;28;20417;-65
2023/12/04 09:34:20;;;;;;;11.93;8.27;;;;;;;;;;5051325;28;20951;-65
2023/12/04 09:36:45;;;;;;;10.45;7.18;;;;;;;;;;5051434;28;20417;-65
2023/12/04 09:39:10;;;;;;;10.87;7.73;;;;;;;;;;5050818;28;20397;-66
2023/12/04 09:41:36;;;;;;;10.13;7.67;;;;;;;;;;5051713;28;20531;-65
2023/12/04 09:44:02;;;;;;;10.02;7.07;;;;;;;;;;5033587;28;20408;-66
2023/12/04 09:46:27;;;;;;;10.37;7.70;;;;;;;;;;5033238;28;20389;-65
2023/12/04 09:48:52;;;;;;;10.87;7.37;;;;;;;;;;5051549;28;20426;-65
2023/12/04 09:51:17;;;;;;;11.00;7.80;;;;;;;;;;5049760;28;20468;-65
2023/12/04 09:53:43;;;;;;;10.80;7.82;;;;;;;;;;5033856;28;20784;-65
2023/12/04 09:56:09;;;;;;;10.67;7.70;;;;;;;;;;5050874;28;20398;-66
2023/12/04 09:58:34;;;;;;;9.70;7.32;;;;;;;;;;5033256;28;21320;-66
2023/12/04 10:01:01;;;;;;;10.63;7.57;;;;;;;;;;5033505;28;20473;-66
2023/12/04 10:03:26;;;;;;;10.50;7.27;;;;;;;;;;5033235;28;20401;-66
2023/12/04 10:05:53;;;;;;;10.37;7.70;;;;;;;;;;5049866;28;20401;-66
2023/12/04 10:08:18;;;;;;;10.63;7.78;;;;;;;;;;5050717;28;20409;-65
2023/12/04 10:10:44;;;;;;;10.93;7.70;;;;;;;;;;5051531;28;20880;-66
2023/12/04 10:13:09;;;;;;;10.30;7.88;;;;;;;;;;5049908;28;20406;-66
2023/12/04 10:15:38;;;;;;;11.20;8.00;;;;;;;;;;5051295;28;20401;-65
2023/12/04 10:18:04;;;;;;;11.70;8.60;;;;;;;;;;5032947;28;20447;-65
2023/12/04 10:20:29;;;;;;;11.10;7.90;;;;;;;;;;5049036;28;20394;-65
2023/12/04 10:22:55;;;;;;;11.65;8.50;;;;;;;;;;5051044;28;20390;-65
2023/12/04 10:25:20;;;;;;;11.37;7.90;;;;;;;;;;5050536;28;20428;-65
2023/12/04 10:27:46;;;;;;;11.07;7.73;;;;;;;;;;5050140;28;20481;-65
2023/12/04 10:30:22;;;;;;;11.17;8.13;;;;;;;;;;5049436;28;20397;-65
2023/12/04 10:32:47;;;;;;;11.32;7.63;;;;;;;;;;5048300;28;20932;-64
2023/12/04 10:35:14;;;;;;;10.45;7.97;;;;;;;;;;5047383;28;20412;-65
2023/12/04 10:37:39;;;;;;;11.77;8.52;;;;;;;;;;5053203;28;20388;-65
2023/12/04 10:40:08;;;;;;;10.27;7.83;;;;;;;;;;5038220;28;20396;-64
2023/12/04 10:42:34;;;;;;;10.70;7.72;;;;;;;;;;5066342;28;20412;-65
2023/12/04 10:44:59;;;;;;;11.13;7.90;;;;;;;;;;5049552;28;20412;-64
2023/12/04 10:47:25;;;;;;;11.65;7.90;;;;;;;;;;5049980;28;20389;-65
2023/12/04 10:49:51;;;;;;;10.43;7.80;;;;;;;;;;5049645;28;20401;-65
2023/12/04 10:52:18;;;;;;;9.63;7.10;;;;;;;;;;5032035;28;20405;-65
2023/12/04 10:54:44;;;;;;;10.88;7.82;;;;;;;;;;5049809;28;20397;-65
2023/12/04 10:57:09;;;;;;;10.07;7.33;;;;;;;;;;5049865;28;20404;-65
2023/12/04 10:59:36;;;;;;;9.70;6.87;;;;;;;;;;5050386;28;21026;-64
2023/12/04 11:02:02;;;;;;;9.65;7.00;;;;;;;;;;5030628;28;20408;-66
2023/12/04 11:04:28;;;;;;;9.15;6.68;;;;;;;;;;5032252;28;20432;-65
2023/12/04 11:06:53;;;;;;;8.82;6.30;;;;;;;;;;5026626;28;20438;-65
2023/12/04 11:09:20;;;;;;;9.23;6.70;;;;;;;;;;5027920;28;20431;-68
2023/12/04 11:11:46;;;;;;;11.63;7.35;;;;;;;;;;5030404;28;20418;-68
2023/12/04 11:14:11;;;;;;;9.90;7.10;;;;;;;;;;5029229;28;20395;-66
2023/12/04 11:16:38;;;;;;;10.93;6.67;;;;;;;;;;5029126;28;20406;-67
2023/12/04 11:19:06;;;;;;;11.23;7.60;;;;;;;;;;5029399;28;20906;-67
2023/12/04 11:21:32;;;;;;;9.38;6.90;;;;;;;;;;5028319;28;20395;-68
2023/12/04 11:23:58;;;;;;;9.07;6.60;;;;;;;;;;5029116;28;20403;-68
2023/12/04 11:26:23;;;;;;;10.00;7.10;;;;;;;;;;5029401;28;20441;-66
2023/12/04 11:28:48;;;;;;;10.93;6.77;;;;;;;;;;5030027;28;20490;-67
2023/12/04 11:31:14;;;;;;;9.00;6.20;;;;;;;;;;5027527;28;20916;-67
2023/12/04 11:33:40;;;;;;;9.68;6.20;;;;;;;;;;5028786;28;20414;-66
2023/12/04 11:36:06;;;;;;;9.57;6.50;;;;;;;;;;5028165;28;20399;-66
2023/12/04 11:38:31;;;;;;;9.15;6.40;;;;;;;;;;5028627;28;20399;-67
2023/12/04 11:40:58;;;;;;;8.37;6.07;;;;;;;;;;5029555;28;20417;-67
2023/12/04 11:43:27;;;;;;;9.63;6.47;;;;;;;;;;5027585;28;20395;-67
2023/12/04 11:45:53;;;;;;;9.00;6.22;;;;;;;;;;5026104;28;20430;-66
2023/12/04 11:48:22;;;;;;;8.98;6.15;;;;;;;;;;5029107;28;20395;-65
2023/12/04 11:50:47;;;;;;;9.02;6.10;;;;;;;;;;5028889;28;20429;-68
2023/12/04 11:53:13;;;;;;;9.37;6.50;;;;;;;;;;5029354;28;20910;-67
2023/12/04 11:55:40;;;;;;;8.70;5.78;;;;;;;;;;5029957;28;20453;-67
2023/12/04 11:58:08;;;;;;;9.18;6.20;;;;;;;;;;5028699;28;20407;-67
2023/12/04 12:00:34;;;;;;;8.73;6.25;;;;;;;;;;5026505;28;20399;-67
2023/12/04 12:03:01;;;;;;;8.43;6.00;;;;;;;;;;5028530;28;20469;-70
2023/12/04 12:05:26;;;;;;;8.23;6.17;;;;;;;;;;5028289;28;20776;-67
2023/12/04 12:07:51;;;;;;;10.98;7.13;;;;;;;;;;5046982;28;20432;-68
2023/12/04 12:10:17;;;;;;;10.33;6.60;;;;;;;;;;5048925;28;20413;-66
2023/12/04 12:12:42;;;;;;;9.47;6.20;;;;;;;;;;5048645;28;20809;-67
2023/12/04 12:15:09;;;;;;;8.70;6.47;;;;;;;;;;5045305;28;20900;-67
2023/12/04 12:17:34;;;;;;;10.13;6.68;;;;;;;;;;5049688;28;20417;-67
2023/12/04 12:19:59;;;;;;;8.67;6.00;;;;;;;;;;5048191;28;20816;-67
2023/12/04 12:22:25;;;;;;;8.93;6.27;;;;;;;;;;5048640;28;20390;-67
2023/12/04 12:24:50;;;;;;;9.65;6.15;;;;;;;;;;5049386;28;20397;-67
2023/12/04 12:27:15;;;;;;;12.53;9.37;;;;;;;;;;5047947;28;20896;-67
2023/12/04 12:29:41;;;;;;;13.90;9.80;;;;;;;;;;5049117;28;20476;-66
2023/12/04 12:32:06;;;;;;;8.83;6.17;;;;;;;;;;5048879;28;20943;-66
2023/12/04 12:34:35;;;;;;;8.47;5.73;;;;;;;;;;5046591;28;20792;-66
2023/12/04 12:37:00;;;;;;;8.75;6.25;;;;;;;;;;5048999;28;20381;-66
2023/12/04 12:39:26;;;;;;;8.70;5.90;;;;;;;;;;5047082;28;20913;-66
2023/12/04 12:41:51;;;;;;;9.43;6.37;;;;;;;;;;5046639;28;20401;-66
2023/12/04 12:44:16;;;;;;;8.80;6.03;;;;;;;;;;5051214;28;20463;-66
2023/12/04 12:46:42;;;;;;;8.93;6.10;;;;;;;;;;5050911;28;20401;-66
2023/12/04 12:49:07;;;;;;;8.37;5.67;;;;;;;;;;5048179;28;20386;-65
2023/12/04 12:51:33;;;;;;;8.45;6.38;;;;;;;;;;5052477;28;20397;-66
2023/12/04 12:53:59;;;;;;;8.77;6.20;;;;;;;;;;5051731;28;20502;-66
2023/12/04 12:56:25;;;;;;;8.60;6.40;;;;;;;;;;5026836;28;20392;-66
2023/12/04 12:58:50;;;;;;;10.57;6.28;;;;;;;;;;5065150;28;20401;-66
2023/12/04 13:01:15;;;;;;;9.40;6.60;;;;;;;;;;5051278;28;20734;-66
2023/12/04 13:03:40;;;;;;;10.10;6.87;;;;;;;;;;5049287;28;20910;-66
2023/12/04 13:06:06;;;;;;;11.85;8.73;;;;;;;;;;5051619;28;20912;-66
2023/12/04 13:08:32;;;;;;;8.93;6.83;;;;;;;;;;5051837;28;20397;-66
2023/12/04 13:10:57;;;;;;;10.77;7.45;;;;;;;;;;5052544;28;20769;-66
2023/12/04 13:13:22;;;;;;;8.37;6.13;;;;;;;;;;5051794;28;20718;-66
2023/12/04 13:15:48;;;;;;;10.10;6.83;;;;;;;;;;5051508;28;20919;-66
2023/12/04 13:18:13;;;;;;;10.90;7.82;;;;;;;;;;5051826;28;20393;-66
2023/12/04 13:20:39;;;;;;;9.90;6.70;;;;;;;;;;5052092;28;20398;-66
2023/12/04 13:23:04;;;;;;;12.33;8.83;;;;;;;;;;5051059;28;20904;-66
2023/12/04 13:25:29;;;;;;;10.13;6.83;;;;;;;;;;5052049;28;20394;-66
2023/12/04 13:27:55;;;;;;;11.03;8.50;;;;;;;;;;5052185;28;20456;-66
2023/12/04 13:30:20;;;;;;;9.70;6.57;;;;;;;;;;5050614;28;20872;-66
2023/12/04 13:32:45;;;;;;;11.20;7.30;;;;;;;;;;5052061;28;20400;-66
2023/12/04 13:35:11;;;;;;;10.37;6.97;;;;;;;;;;5033509;28;20401;-66
2023/12/04 13:37:38;;;;;;;9.63;7.50;;;;;;;;;;5051482;28;20393;-66
2023/12/04 13:40:06;;;;;;;10.83;7.77;;;;;;;;;;5050304;28;20405;-66
2023/12/04 13:45:15;;;;;;;10.03;6.67;;;;;;;;;;5050630;28;20454;-65
2023/12/04 13:47:41;;;;;;;30.97;26.13;;;;;;;;;;5051681;28;20397;-66
2023/12/04 13:50:08;;;;;;;46.63;36.93;;;;;;;;;;5050893;28;20413;-66
2023/12/04 13:52:34;;;;;;;10.43;7.28;;;;;;;;;;5051131;28;20466;-66
2023/12/04 13:55:00;;;;;;;24.10;16.03;;;;;;;;;;5050403;28;20394;-66
2023/12/04 13:57:28;;;;;;;9.55;6.90;;;;;;;;;;5050376;28;20389;-66
2023/12/04 13:59:55;;;;;;;47.13;42.70;;;;;;;;;;5051470;28;20404;-66
2023/12/04 14:02:21;;;;;;;10.00;6.75;;;;;;;;;;5050714;28;20389;-66
2023/12/04 14:04:46;;;;;;;14.57;11.77;;;;;;;;;;5049106;28;20769;-66
2023/12/04 14:07:12;;;;;;;10.67;6.83;;;;;;;;;;5050784;28;20409;-66
2023/12/04 14:09:37;;;;;;;15.02;12.27;;;;;;;;;;5033705;28;20519;-66
2023/12/04 14:12:03;;;;;;;12.77;8.70;;;;;;;;;;5049917;28;20394;-66
2023/12/04 14:14:28;;;;;;;9.40;6.47;;;;;;;;;;5051278;28;20393;-66
2023/12/04 14:16:54;;;;;;;10.20;7.30;;;;;;;;;;5051216;28;20927;-66
2023/12/04 14:19:21;;;;;;;10.33;6.90;;;;;;;;;;5049706;28;20401;-66
2023/12/04 14:21:48;;;;;;;10.40;8.18;;;;;;;;;;5051233;28;20451;-66